sensor_id;sensor_type;location;lat;lon;timestamp;P1;durP1;ratioP1;P2;durP2;ratioP2
76035;SDS011;64732;56.314;44.068;2023-04-25T00:00:26;7.40;;;2.63;;
76035;SDS011;64732;56.314;44.068;2023-04-25T00:02:47;8.77;;;3.95;;
76035;SDS011;64732;56.314;44.068;2023-04-25T00:05:08;9.73;;;2.88;;
76035;SDS011;64732;56.314;44.068;2023-04-25T00:07:29;6.05;;;3.08;;
76035;SDS011;64732;56.314;44.068;2023-04-25T00:09:50;5.45;;;2.80;;
76035;SDS011;64732;56.314;44.068;2023-04-25T00:12:11;6.68;;;2.60;;
76035;SDS011;64732;56.314;44.068;2023-04-25T00:14:35;5.80;;;2.50;;
76035;SDS011;64732;56.314;44.068;2023-04-25T00:16:56;8.05;;;2.45;;
76035;SDS011;64732;56.314;44.068;2023-04-25T00:19:17;5.30;;;2.72;;
76035;SDS011;64732;56.314;44.068;2023-04-25T00:21:38;5.63;;;2.47;;
76035;SDS011;64732;56.314;44.068;2023-04-25T00:23:59;5.90;;;3.22;;
76035;SDS011;64732;56.314;44.068;2023-04-25T00:26:20;5.13;;;2.70;;
76035;SDS011;64732;56.314;44.068;2023-04-25T00:28:41;4.60;;;2.28;;
76035;SDS011;64732;56.314;44.068;2023-04-25T00:31:05;5.38;;;2.42;;
76035;SDS011;64732;56.314;44.068;2023-04-25T00:33:26;4.95;;;2.60;;
76035;SDS011;64732;56.314;44.068;2023-04-25T00:35:47;5.57;;;2.35;;
76035;SDS011;64732;56.314;44.068;2023-04-25T00:38:08;4.13;;;2.42;;
76035;SDS011;64732;56.314;44.068;2023-04-25T00:40:29;7.28;;;2.70;;
76035;SDS011;64732;56.314;44.068;2023-04-25T00:42:53;10.82;;;2.70;;
76035;SDS011;64732;56.314;44.068;2023-04-25T00:45:14;5.53;;;2.33;;
76035;SDS011;64732;56.314;44.068;2023-04-25T00:47:38;4.07;;;2.40;;
76035;SDS011;64732;56.314;44.068;2023-04-25T00:49:59;6.55;;;3.00;;
76035;SDS011;64732;56.314;44.068;2023-04-25T00:52:20;7.97;;;2.35;;
76035;SDS011;64732;56.314;44.068;2023-04-25T00:54:41;5.60;;;2.60;;
76035;SDS011;64732;56.314;44.068;2023-04-25T00:57:03;5.30;;;2.60;;
76035;SDS011;64732;56.314;44.068;2023-04-25T00:59:23;7.07;;;2.40;;
76035;SDS011;64732;56.314;44.068;2023-04-25T01:01:46;7.78;;;3.40;;
76035;SDS011;64732;56.314;44.068;2023-04-25T01:04:10;6.22;;;2.40;;
76035;SDS011;64732;56.314;44.068;2023-04-25T01:06:32;7.78;;;2.28;;
76035;SDS011;64732;56.314;44.068;2023-04-25T01:08:53;7.30;;;2.30;;
76035;SDS011;64732;56.314;44.068;2023-04-25T01:11:14;4.50;;;2.47;;
76035;SDS011;64732;56.314;44.068;2023-04-25T01:13:36;5.00;;;2.97;;
76035;SDS011;64732;56.314;44.068;2023-04-25T01:15:57;7.40;;;3.03;;
76035;SDS011;64732;56.314;44.068;2023-04-25T01:18:17;6.07;;;2.60;;
76035;SDS011;64732;56.314;44.068;2023-04-25T01:20:42;4.30;;;2.70;;
76035;SDS011;64732;56.314;44.068;2023-04-25T01:23:06;9.43;;;2.75;;
76035;SDS011;64732;56.314;44.068;2023-04-25T01:25:28;4.45;;;2.63;;
76035;SDS011;64732;56.314;44.068;2023-04-25T01:27:49;7.13;;;2.88;;
76035;SDS011;64732;56.314;44.068;2023-04-25T01:30:10;8.25;;;3.50;;
76035;SDS011;64732;56.314;44.068;2023-04-25T01:32:32;6.18;;;3.42;;
76035;SDS011;64732;56.314;44.068;2023-04-25T01:34:54;5.63;;;2.97;;
76035;SDS011;64732;56.314;44.068;2023-04-25T01:37:16;6.47;;;2.97;;
76035;SDS011;64732;56.314;44.068;2023-04-25T01:39:40;5.18;;;2.78;;
76035;SDS011;64732;56.314;44.068;2023-04-25T01:42:01;8.85;;;2.83;;
76035;SDS011;64732;56.314;44.068;2023-04-25T01:44:22;4.65;;;2.80;;
76035;SDS011;64732;56.314;44.068;2023-04-25T01:46:44;9.25;;;3.13;;
76035;SDS011;64732;56.314;44.068;2023-04-25T01:49:05;6.70;;;2.50;;
76035;SDS011;64732;56.314;44.068;2023-04-25T01:51:27;6.95;;;2.70;;
76035;SDS011;64732;56.314;44.068;2023-04-25T01:53:48;3.22;;;2.10;;
76035;SDS011;64732;56.314;44.068;2023-04-25T01:56:12;5.63;;;2.83;;
76035;SDS011;64732;56.314;44.068;2023-04-25T01:58:33;7.45;;;2.80;;
76035;SDS011;64732;56.314;44.068;2023-04-25T02:00:54;9.85;;;3.00;;
76035;SDS011;64732;56.314;44.068;2023-04-25T02:03:15;7.40;;;4.07;;
76035;SDS011;64732;56.314;44.068;2023-04-25T02:05:36;6.93;;;3.72;;
76035;SDS011;64732;56.314;44.068;2023-04-25T02:07:58;11.82;;;2.97;;
76035;SDS011;64732;56.314;44.068;2023-04-25T02:10:19;6.10;;;3.50;;
76035;SDS011;64732;56.314;44.068;2023-04-25T02:12:43;6.28;;;2.67;;
76035;SDS011;64732;56.314;44.068;2023-04-25T02:15:05;8.93;;;2.80;;
76035;SDS011;64732;56.314;44.068;2023-04-25T02:17:27;4.93;;;2.67;;
76035;SDS011;64732;56.314;44.068;2023-04-25T02:19:48;6.20;;;3.00;;
76035;SDS011;64732;56.314;44.068;2023-04-25T02:22:09;6.70;;;3.13;;
76035;SDS011;64732;56.314;44.068;2023-04-25T02:24:32;6.03;;;3.13;;
76035;SDS011;64732;56.314;44.068;2023-04-25T02:26:53;6.18;;;2.78;;
76035;SDS011;64732;56.314;44.068;2023-04-25T02:29:16;6.63;;;3.38;;
76035;SDS011;64732;56.314;44.068;2023-04-25T02:31:37;5.85;;;2.88;;
76035;SDS011;64732;56.314;44.068;2023-04-25T02:33:59;4.20;;;2.53;;
76035;SDS011;64732;56.314;44.068;2023-04-25T02:36:20;7.07;;;3.08;;
76035;SDS011;64732;56.314;44.068;2023-04-25T02:38:41;6.95;;;3.05;;
76035;SDS011;64732;56.314;44.068;2023-04-25T02:41:02;6.18;;;2.53;;
76035;SDS011;64732;56.314;44.068;2023-04-25T02:43:23;6.43;;;2.70;;
76035;SDS011;64732;56.314;44.068;2023-04-25T02:45:47;5.25;;;2.75;;
76035;SDS011;64732;56.314;44.068;2023-04-25T02:48:08;7.80;;;2.95;;
76035;SDS011;64732;56.314;44.068;2023-04-25T02:50:29;13.18;;;3.17;;
76035;SDS011;64732;56.314;44.068;2023-04-25T02:52:50;6.18;;;2.92;;
76035;SDS011;64732;56.314;44.068;2023-04-25T02:55:11;6.03;;;2.90;;
76035;SDS011;64732;56.314;44.068;2023-04-25T02:57:33;5.68;;;2.97;;
76035;SDS011;64732;56.314;44.068;2023-04-25T02:59:54;6.13;;;2.42;;
76035;SDS011;64732;56.314;44.068;2023-04-25T03:02:17;9.40;;;2.97;;
76035;SDS011;64732;56.314;44.068;2023-04-25T03:04:38;7.35;;;3.00;;
76035;SDS011;64732;56.314;44.068;2023-04-25T03:07:00;4.50;;;2.47;;
76035;SDS011;64732;56.314;44.068;2023-04-25T03:09:21;6.60;;;2.50;;
76035;SDS011;64732;56.314;44.068;2023-04-25T03:11:42;6.03;;;2.72;;
76035;SDS011;64732;56.314;44.068;2023-04-25T03:14:04;9.00;;;3.28;;
76035;SDS011;64732;56.314;44.068;2023-04-25T03:16:25;6.90;;;2.72;;
76035;SDS011;64732;56.314;44.068;2023-04-25T03:18:48;5.72;;;2.65;;
76035;SDS011;64732;56.314;44.068;2023-04-25T03:21:09;6.05;;;2.72;;
76035;SDS011;64732;56.314;44.068;2023-04-25T03:23:30;9.88;;;3.22;;
76035;SDS011;64732;56.314;44.068;2023-04-25T03:25:51;10.75;;;3.42;;
76035;SDS011;64732;56.314;44.068;2023-04-25T03:28:13;9.48;;;2.80;;
76035;SDS011;64732;56.314;44.068;2023-04-25T03:30:34;7.82;;;2.80;;
76035;SDS011;64732;56.314;44.068;2023-04-25T03:32:55;11.15;;;3.08;;
76035;SDS011;64732;56.314;44.068;2023-04-25T03:35:19;9.43;;;4.18;;
76035;SDS011;64732;56.314;44.068;2023-04-25T03:37:40;9.48;;;4.85;;
76035;SDS011;64732;56.314;44.068;2023-04-25T03:40:01;12.40;;;3.80;;
76035;SDS011;64732;56.314;44.068;2023-04-25T03:42:22;9.70;;;3.80;;
76035;SDS011;64732;56.314;44.068;2023-04-25T03:44:43;8.88;;;3.75;;
76035;SDS011;64732;56.314;44.068;2023-04-25T03:47:04;9.15;;;3.35;;
76035;SDS011;64732;56.314;44.068;2023-04-25T03:49:25;13.98;;;7.43;;
76035;SDS011;64732;56.314;44.068;2023-04-25T03:51:49;20.17;;;5.43;;
76035;SDS011;64732;56.314;44.068;2023-04-25T03:54:10;8.70;;;3.25;;
76035;SDS011;64732;56.314;44.068;2023-04-25T03:56:31;8.55;;;4.60;;
76035;SDS011;64732;56.314;44.068;2023-04-25T03:58:52;14.05;;;6.18;;
76035;SDS011;64732;56.314;44.068;2023-04-25T04:01:13;10.90;;;4.03;;
76035;SDS011;64732;56.314;44.068;2023-04-25T04:03:34;10.55;;;3.20;;
76035;SDS011;64732;56.314;44.068;2023-04-25T04:05:55;14.75;;;4.32;;
76035;SDS011;64732;56.314;44.068;2023-04-25T04:08:21;9.38;;;3.60;;
76035;SDS011;64732;56.314;44.068;2023-04-25T04:10:43;8.20;;;3.85;;
76035;SDS011;64732;56.314;44.068;2023-04-25T04:13:11;8.60;;;3.17;;
76035;SDS011;64732;56.314;44.068;2023-04-25T04:15:32;8.70;;;3.47;;
76035;SDS011;64732;56.314;44.068;2023-04-25T04:17:54;8.32;;;2.88;;
76035;SDS011;64732;56.314;44.068;2023-04-25T04:20:16;7.70;;;3.22;;
76035;SDS011;64732;56.314;44.068;2023-04-25T04:22:42;6.68;;;3.03;;
76035;SDS011;64732;56.314;44.068;2023-04-25T04:25:06;5.38;;;2.78;;
76035;SDS011;64732;56.314;44.068;2023-04-25T04:27:36;12.70;;;3.42;;
76035;SDS011;64732;56.314;44.068;2023-04-25T04:29:57;5.90;;;2.47;;
76035;SDS011;64732;56.314;44.068;2023-04-25T04:32:18;5.85;;;2.30;;
76035;SDS011;64732;56.314;44.068;2023-04-25T04:34:40;8.32;;;2.80;;
76035;SDS011;64732;56.314;44.068;2023-04-25T04:37:01;5.40;;;2.92;;
76035;SDS011;64732;56.314;44.068;2023-04-25T04:39:22;9.32;;;3.60;;
76035;SDS011;64732;56.314;44.068;2023-04-25T04:41:46;9.35;;;3.90;;
76035;SDS011;64732;56.314;44.068;2023-04-25T04:44:10;8.45;;;3.42;;
76035;SDS011;64732;56.314;44.068;2023-04-25T04:46:32;10.68;;;3.63;;
76035;SDS011;64732;56.314;44.068;2023-04-25T04:48:53;8.93;;;2.95;;
76035;SDS011;64732;56.314;44.068;2023-04-25T04:51:14;8.27;;;3.05;;
76035;SDS011;64732;56.314;44.068;2023-04-25T04:53:35;6.93;;;2.92;;
76035;SDS011;64732;56.314;44.068;2023-04-25T04:55:56;5.88;;;2.42;;
76035;SDS011;64732;56.314;44.068;2023-04-25T04:58:20;5.57;;;2.60;;
76035;SDS011;64732;56.314;44.068;2023-04-25T05:00:41;7.28;;;2.70;;
76035;SDS011;64732;56.314;44.068;2023-04-25T05:03:06;13.23;;;4.22;;
76035;SDS011;64732;56.314;44.068;2023-04-25T05:05:27;8.93;;;3.13;;
76035;SDS011;64732;56.314;44.068;2023-04-25T05:07:48;7.95;;;2.63;;
76035;SDS011;64732;56.314;44.068;2023-04-25T05:10:09;5.00;;;2.28;;
76035;SDS011;64732;56.314;44.068;2023-04-25T05:12:30;7.90;;;2.55;;
76035;SDS011;64732;56.314;44.068;2023-04-25T05:14:54;10.32;;;2.60;;
76035;SDS011;64732;56.314;44.068;2023-04-25T05:17:15;9.55;;;2.80;;
76035;SDS011;64732;56.314;44.068;2023-04-25T05:19:36;5.28;;;3.03;;
76035;SDS011;64732;56.314;44.068;2023-04-25T05:21:57;5.05;;;2.85;;
76035;SDS011;64732;56.314;44.068;2023-04-25T05:24:21;7.68;;;2.78;;
76035;SDS011;64732;56.314;44.068;2023-04-25T05:26:42;12.85;;;2.90;;
76035;SDS011;64732;56.314;44.068;2023-04-25T05:29:06;5.75;;;2.28;;
76035;SDS011;64732;56.314;44.068;2023-04-25T05:31:29;7.90;;;2.47;;
76035;SDS011;64732;56.314;44.068;2023-04-25T05:33:51;6.32;;;2.53;;
76035;SDS011;64732;56.314;44.068;2023-04-25T05:36:12;9.25;;;2.20;;
76035;SDS011;64732;56.314;44.068;2023-04-25T05:38:33;13.25;;;2.70;;
76035;SDS011;64732;56.314;44.068;2023-04-25T05:40:54;7.72;;;2.38;;
76035;SDS011;64732;56.314;44.068;2023-04-25T05:43:15;8.02;;;2.60;;
76035;SDS011;64732;56.314;44.068;2023-04-25T05:45:37;6.03;;;2.47;;
76035;SDS011;64732;56.314;44.068;2023-04-25T05:48:00;9.10;;;2.58;;
76035;SDS011;64732;56.314;44.068;2023-04-25T05:50:21;9.93;;;1.85;;
76035;SDS011;64732;56.314;44.068;2023-04-25T05:52:43;5.57;;;1.85;;
76035;SDS011;64732;56.314;44.068;2023-04-25T05:55:04;5.30;;;1.77;;
76035;SDS011;64732;56.314;44.068;2023-04-25T05:57:26;6.55;;;1.88;;
76035;SDS011;64732;56.314;44.068;2023-04-25T05:59:48;5.78;;;2.17;;
76035;SDS011;64732;56.314;44.068;2023-04-25T06:02:17;14.48;;;2.65;;
76035;SDS011;64732;56.314;44.068;2023-04-25T06:04:45;16.73;;;4.28;;
76035;SDS011;64732;56.314;44.068;2023-04-25T06:07:10;10.85;;;3.30;;
76035;SDS011;64732;56.314;44.068;2023-04-25T06:09:35;10.00;;;3.20;;
76035;SDS011;64732;56.314;44.068;2023-04-25T06:11:56;9.57;;;3.10;;
76035;SDS011;64732;56.314;44.068;2023-04-25T06:14:17;11.30;;;3.75;;
76035;SDS011;64732;56.314;44.068;2023-04-25T06:16:39;11.05;;;3.65;;
76035;SDS011;64732;56.314;44.068;2023-04-25T06:19:00;12.32;;;3.47;;
76035;SDS011;64732;56.314;44.068;2023-04-25T06:21:30;8.40;;;3.45;;
76035;SDS011;64732;56.314;44.068;2023-04-25T06:23:54;8.55;;;3.72;;
76035;SDS011;64732;56.314;44.068;2023-04-25T06:26:15;10.43;;;3.20;;
76035;SDS011;64732;56.314;44.068;2023-04-25T06:28:39;6.80;;;3.05;;
76035;SDS011;64732;56.314;44.068;2023-04-25T06:31:02;7.82;;;2.80;;
76035;SDS011;64732;56.314;44.068;2023-04-25T06:33:24;8.27;;;3.42;;
76035;SDS011;64732;56.314;44.068;2023-04-25T06:35:45;8.25;;;2.78;;
76035;SDS011;64732;56.314;44.068;2023-04-25T06:38:09;10.77;;;3.20;;
76035;SDS011;64732;56.314;44.068;2023-04-25T06:40:30;6.72;;;2.25;;
76035;SDS011;64732;56.314;44.068;2023-04-25T06:42:51;6.43;;;2.40;;
76035;SDS011;64732;56.314;44.068;2023-04-25T06:45:14;12.55;;;2.58;;
76035;SDS011;64732;56.314;44.068;2023-04-25T06:47:35;12.70;;;2.38;;
76035;SDS011;64732;56.314;44.068;2023-04-25T06:49:56;8.85;;;2.08;;
76035;SDS011;64732;56.314;44.068;2023-04-25T06:52:17;12.05;;;2.13;;
76035;SDS011;64732;56.314;44.068;2023-04-25T06:54:41;7.68;;;2.05;;
76035;SDS011;64732;56.314;44.068;2023-04-25T06:57:02;6.45;;;1.63;;
76035;SDS011;64732;56.314;44.068;2023-04-25T06:59:23;8.70;;;1.73;;
76035;SDS011;64732;56.314;44.068;2023-04-25T07:01:44;4.32;;;1.90;;
76035;SDS011;64732;56.314;44.068;2023-04-25T07:04:05;5.82;;;1.63;;
76035;SDS011;64732;56.314;44.068;2023-04-25T07:06:26;6.55;;;2.00;;
76035;SDS011;64732;56.314;44.068;2023-04-25T07:08:47;8.10;;;2.05;;
76035;SDS011;64732;56.314;44.068;2023-04-25T07:11:11;9.43;;;1.80;;
76035;SDS011;64732;56.314;44.068;2023-04-25T07:13:32;8.30;;;1.90;;
76035;SDS011;64732;56.314;44.068;2023-04-25T07:15:53;9.15;;;1.85;;
76035;SDS011;64732;56.314;44.068;2023-04-25T07:18:15;8.05;;;1.92;;
76035;SDS011;64732;56.314;44.068;2023-04-25T07:20:36;5.18;;;1.88;;
76035;SDS011;64732;56.314;44.068;2023-04-25T07:22:57;9.45;;;2.20;;
76035;SDS011;64732;56.314;44.068;2023-04-25T07:25:18;4.18;;;1.90;;
76035;SDS011;64732;56.314;44.068;2023-04-25T07:27:43;6.72;;;2.38;;
76035;SDS011;64732;56.314;44.068;2023-04-25T07:30:05;6.05;;;1.70;;
76035;SDS011;64732;56.314;44.068;2023-04-25T07:32:28;8.38;;;2.30;;
76035;SDS011;64732;56.314;44.068;2023-04-25T07:34:50;7.03;;;2.53;;
76035;SDS011;64732;56.314;44.068;2023-04-25T07:37:11;6.80;;;1.50;;
76035;SDS011;64732;56.314;44.068;2023-04-25T07:39:32;14.55;;;1.70;;
76035;SDS011;64732;56.314;44.068;2023-04-25T07:41:53;3.67;;;1.30;;
76035;SDS011;64732;56.314;44.068;2023-04-25T07:44:20;5.00;;;1.40;;
76035;SDS011;64732;56.314;44.068;2023-04-25T07:46:41;3.28;;;1.30;;
76035;SDS011;64732;56.314;44.068;2023-04-25T07:49:02;6.78;;;1.73;;
76035;SDS011;64732;56.314;44.068;2023-04-25T07:51:24;10.73;;;1.58;;
76035;SDS011;64732;56.314;44.068;2023-04-25T07:53:45;6.90;;;1.50;;
76035;SDS011;64732;56.314;44.068;2023-04-25T07:56:07;12.65;;;1.85;;
76035;SDS011;64732;56.314;44.068;2023-04-25T07:58:28;5.63;;;1.17;;
76035;SDS011;64732;56.314;44.068;2023-04-25T08:00:52;10.05;;;1.75;;
76035;SDS011;64732;56.314;44.068;2023-04-25T08:03:13;9.77;;;1.27;;
76035;SDS011;64732;56.314;44.068;2023-04-25T08:05:35;6.15;;;1.13;;
76035;SDS011;64732;56.314;44.068;2023-04-25T08:07:57;7.32;;;1.13;;
76035;SDS011;64732;56.314;44.068;2023-04-25T08:10:18;4.63;;;0.95;;
76035;SDS011;64732;56.314;44.068;2023-04-25T08:12:40;4.57;;;1.13;;
76035;SDS011;64732;56.314;44.068;2023-04-25T08:15:01;5.93;;;1.10;;
76035;SDS011;64732;56.314;44.068;2023-04-25T08:17:28;3.83;;;1.50;;
76035;SDS011;64732;56.314;44.068;2023-04-25T08:19:51;9.50;;;2.20;;
76035;SDS011;64732;56.314;44.068;2023-04-25T08:22:12;3.50;;;1.20;;
76035;SDS011;64732;56.314;44.068;2023-04-25T08:24:33;6.20;;;1.42;;
76035;SDS011;64732;56.314;44.068;2023-04-25T08:26:55;15.70;;;1.75;;
76035;SDS011;64732;56.314;44.068;2023-04-25T08:29:16;6.03;;;1.30;;
76035;SDS011;64732;56.314;44.068;2023-04-25T08:31:37;5.03;;;1.27;;
76035;SDS011;64732;56.314;44.068;2023-04-25T08:34:00;3.08;;;1.20;;
76035;SDS011;64732;56.314;44.068;2023-04-25T08:38:58;7.22;;;1.50;;
76035;SDS011;64732;56.314;44.068;2023-04-25T08:41:19;6.50;;;1.30;;
76035;SDS011;64732;56.314;44.068;2023-04-25T08:43:41;6.60;;;1.30;;
76035;SDS011;64732;56.314;44.068;2023-04-25T08:46:03;7.63;;;1.13;;
76035;SDS011;64732;56.314;44.068;2023-04-25T08:48:24;6.57;;;1.10;;
76035;SDS011;64732;56.314;44.068;2023-04-25T08:50:51;5.95;;;1.08;;
76035;SDS011;64732;56.314;44.068;2023-04-25T08:53:13;3.88;;;1.27;;
76035;SDS011;64732;56.314;44.068;2023-04-25T08:55:35;5.85;;;1.20;;
76035;SDS011;64732;56.314;44.068;2023-04-25T08:57:57;7.53;;;1.40;;
76035;SDS011;64732;56.314;44.068;2023-04-25T09:00:18;7.07;;;1.10;;
76035;SDS011;64732;56.314;44.068;2023-04-25T09:02:39;10.60;;;1.38;;
76035;SDS011;64732;56.314;44.068;2023-04-25T09:05:01;7.28;;;1.30;;
76035;SDS011;64732;56.314;44.068;2023-04-25T09:07:26;7.25;;;1.13;;
76035;SDS011;64732;56.314;44.068;2023-04-25T09:09:48;7.50;;;1.80;;
76035;SDS011;64732;56.314;44.068;2023-04-25T09:12:09;9.80;;;1.40;;
76035;SDS011;64732;56.314;44.068;2023-04-25T09:14:30;6.65;;;1.30;;
76035;SDS011;64732;56.314;44.068;2023-04-25T09:17:00;9.32;;;1.27;;
76035;SDS011;64732;56.314;44.068;2023-04-25T09:19:22;8.50;;;1.65;;
76035;SDS011;64732;56.314;44.068;2023-04-25T09:21:44;4.70;;;1.40;;
76035;SDS011;64732;56.314;44.068;2023-04-25T09:24:07;7.45;;;1.75;;
76035;SDS011;64732;56.314;44.068;2023-04-25T09:26:29;8.05;;;1.73;;
76035;SDS011;64732;56.314;44.068;2023-04-25T09:28:50;5.30;;;1.20;;
76035;SDS011;64732;56.314;44.068;2023-04-25T09:31:28;5.13;;;1.30;;
76035;SDS011;64732;56.314;44.068;2023-04-25T09:33:49;6.70;;;1.52;;
76035;SDS011;64732;56.314;44.068;2023-04-25T09:36:10;5.50;;;1.52;;
76035;SDS011;64732;56.314;44.068;2023-04-25T09:38:32;3.83;;;1.48;;
76035;SDS011;64732;56.314;44.068;2023-04-25T09:40:55;8.50;;;1.35;;
76035;SDS011;64732;56.314;44.068;2023-04-25T09:43:20;5.20;;;1.17;;
76035;SDS011;64732;56.314;44.068;2023-04-25T09:45:41;6.07;;;1.45;;
76035;SDS011;64732;56.314;44.068;2023-04-25T09:48:03;7.55;;;2.58;;
76035;SDS011;64732;56.314;44.068;2023-04-25T09:50:24;5.50;;;1.42;;
76035;SDS011;64732;56.314;44.068;2023-04-25T09:52:45;10.07;;;2.05;;
76035;SDS011;64732;56.314;44.068;2023-04-25T09:55:06;10.25;;;2.10;;
76035;SDS011;64732;56.314;44.068;2023-04-25T09:57:31;8.07;;;1.70;;
76035;SDS011;64732;56.314;44.068;2023-04-25T09:59:53;6.57;;;1.75;;
76035;SDS011;64732;56.314;44.068;2023-04-25T10:02:15;5.10;;;1.52;;
76035;SDS011;64732;56.314;44.068;2023-04-25T10:04:37;5.38;;;1.35;;
76035;SDS011;64732;56.314;44.068;2023-04-25T10:06:59;3.60;;;1.98;;
76035;SDS011;64732;56.314;44.068;2023-04-25T10:09:21;5.70;;;1.60;;
76035;SDS011;64732;56.314;44.068;2023-04-25T10:11:45;7.63;;;1.90;;
76035;SDS011;64732;56.314;44.068;2023-04-25T10:14:09;8.05;;;1.77;;
76035;SDS011;64732;56.314;44.068;2023-04-25T10:16:31;7.18;;;2.03;;
76035;SDS011;64732;56.314;44.068;2023-04-25T10:18:52;6.32;;;1.50;;
76035;SDS011;64732;56.314;44.068;2023-04-25T10:21:14;9.32;;;2.00;;
76035;SDS011;64732;56.314;44.068;2023-04-25T10:23:35;32.33;;;4.70;;
76035;SDS011;64732;56.314;44.068;2023-04-25T10:25:57;8.48;;;2.33;;
76035;SDS011;64732;56.314;44.068;2023-04-25T10:28:18;8.27;;;3.08;;
76035;SDS011;64732;56.314;44.068;2023-04-25T10:33:29;10.73;;;4.43;;
76035;SDS011;64732;56.314;44.068;2023-04-25T10:35:51;14.50;;;6.10;;
76035;SDS011;64732;56.314;44.068;2023-04-25T10:38:13;15.20;;;5.78;;
76035;SDS011;64732;56.314;44.068;2023-04-25T10:40:34;13.15;;;5.90;;
76035;SDS011;64732;56.314;44.068;2023-04-25T10:42:56;15.25;;;5.93;;
76035;SDS011;64732;56.314;44.068;2023-04-25T10:45:52;11.00;;;4.82;;
76035;SDS011;64732;56.314;44.068;2023-04-25T10:48:27;6.97;;;2.88;;
76035;SDS011;64732;56.314;44.068;2023-04-25T10:50:49;9.20;;;3.17;;
76035;SDS011;64732;56.314;44.068;2023-04-25T10:53:14;10.25;;;2.58;;
76035;SDS011;64732;56.314;44.068;2023-04-25T10:55:48;7.95;;;2.20;;
76035;SDS011;64732;56.314;44.068;2023-04-25T10:58:09;8.82;;;2.47;;
76035;SDS011;64732;56.314;44.068;2023-04-25T11:00:30;9.05;;;2.90;;
76035;SDS011;64732;56.314;44.068;2023-04-25T11:02:52;10.75;;;3.28;;
76035;SDS011;64732;56.314;44.068;2023-04-25T11:05:27;6.82;;;3.00;;
76035;SDS011;64732;56.314;44.068;2023-04-25T11:07:52;9.18;;;3.38;;
76035;SDS011;64732;56.314;44.068;2023-04-25T11:10:14;10.75;;;3.60;;
76035;SDS011;64732;56.314;44.068;2023-04-25T11:12:35;10.35;;;2.92;;
76035;SDS011;64732;56.314;44.068;2023-04-25T11:15:00;8.20;;;2.45;;
76035;SDS011;64732;56.314;44.068;2023-04-25T11:17:25;13.40;;;3.05;;
76035;SDS011;64732;56.314;44.068;2023-04-25T11:19:48;12.85;;;2.20;;
76035;SDS011;64732;56.314;44.068;2023-04-25T11:22:11;7.13;;;1.73;;
76035;SDS011;64732;56.314;44.068;2023-04-25T11:24:33;5.53;;;1.48;;
76035;SDS011;64732;56.314;44.068;2023-04-25T11:26:54;10.15;;;1.60;;
76035;SDS011;64732;56.314;44.068;2023-04-25T11:29:15;5.78;;;1.90;;
76035;SDS011;64732;56.314;44.068;2023-04-25T11:31:37;14.07;;;1.75;;
76035;SDS011;64732;56.314;44.068;2023-04-25T11:33:58;8.07;;;1.70;;
76035;SDS011;64732;56.314;44.068;2023-04-25T11:36:19;5.80;;;1.75;;
76035;SDS011;64732;56.314;44.068;2023-04-25T11:38:42;8.10;;;1.50;;
76035;SDS011;64732;56.314;44.068;2023-04-25T11:41:03;5.10;;;1.38;;
76035;SDS011;64732;56.314;44.068;2023-04-25T11:43:25;9.75;;;1.75;;
76035;SDS011;64732;56.314;44.068;2023-04-25T11:45:46;4.63;;;1.60;;
76035;SDS011;64732;56.314;44.068;2023-04-25T11:48:08;6.68;;;1.83;;
76035;SDS011;64732;56.314;44.068;2023-04-25T11:50:29;6.78;;;1.65;;
76035;SDS011;64732;56.314;44.068;2023-04-25T11:52:50;5.82;;;1.88;;
76035;SDS011;64732;56.314;44.068;2023-04-25T11:55:15;7.00;;;1.75;;
76035;SDS011;64732;56.314;44.068;2023-04-25T11:57:38;9.50;;;1.70;;
76035;SDS011;64732;56.314;44.068;2023-04-25T12:00:10;9.60;;;1.85;;
76035;SDS011;64732;56.314;44.068;2023-04-25T12:02:34;9.40;;;3.22;;
76035;SDS011;64732;56.314;44.068;2023-04-25T12:04:58;11.52;;;2.05;;
76035;SDS011;64732;56.314;44.068;2023-04-25T12:07:19;6.70;;;1.80;;
76035;SDS011;64732;56.314;44.068;2023-04-25T12:09:40;7.50;;;1.65;;
76035;SDS011;64732;56.314;44.068;2023-04-25T12:12:04;6.68;;;1.75;;
76035;SDS011;64732;56.314;44.068;2023-04-25T12:14:27;10.27;;;1.80;;
76035;SDS011;64732;56.314;44.068;2023-04-25T12:16:49;11.38;;;1.92;;
76035;SDS011;64732;56.314;44.068;2023-04-25T12:19:13;11.05;;;1.80;;
76035;SDS011;64732;56.314;44.068;2023-04-25T12:21:34;14.68;;;2.38;;
76035;SDS011;64732;56.314;44.068;2023-04-25T12:23:55;8.25;;;1.80;;
76035;SDS011;64732;56.314;44.068;2023-04-25T12:26:18;8.25;;;2.30;;
76035;SDS011;64732;56.314;44.068;2023-04-25T12:28:44;13.15;;;2.00;;
76035;SDS011;64732;56.314;44.068;2023-04-25T12:31:06;9.93;;;1.90;;
76035;SDS011;64732;56.314;44.068;2023-04-25T12:33:28;12.13;;;1.90;;
76035;SDS011;64732;56.314;44.068;2023-04-25T12:35:50;7.28;;;1.75;;
76035;SDS011;64732;56.314;44.068;2023-04-25T12:38:11;7.47;;;2.00;;
76035;SDS011;64732;56.314;44.068;2023-04-25T12:40:41;7.45;;;1.63;;
76035;SDS011;64732;56.314;44.068;2023-04-25T12:43:05;14.70;;;2.08;;
76035;SDS011;64732;56.314;44.068;2023-04-25T12:45:29;12.48;;;2.58;;
76035;SDS011;64732;56.314;44.068;2023-04-25T12:47:52;12.27;;;2.05;;
76035;SDS011;64732;56.314;44.068;2023-04-25T12:50:13;16.50;;;2.08;;
76035;SDS011;64732;56.314;44.068;2023-04-25T12:52:34;5.60;;;1.48;;
76035;SDS011;64732;56.314;44.068;2023-04-25T12:54:55;18.48;;;1.75;;
76035;SDS011;64732;56.314;44.068;2023-04-25T12:57:16;7.25;;;1.40;;
76035;SDS011;64732;56.314;44.068;2023-04-25T12:59:37;8.95;;;2.05;;
76035;SDS011;64732;56.314;44.068;2023-04-25T13:02:01;7.28;;;1.50;;
76035;SDS011;64732;56.314;44.068;2023-04-25T13:04:22;18.88;;;1.90;;
76035;SDS011;64732;56.314;44.068;2023-04-25T13:06:43;6.07;;;1.90;;
76035;SDS011;64732;56.314;44.068;2023-04-25T13:09:04;5.75;;;1.25;;
76035;SDS011;64732;56.314;44.068;2023-04-25T13:11:28;7.50;;;1.50;;
76035;SDS011;64732;56.314;44.068;2023-04-25T13:13:49;6.07;;;1.13;;
76035;SDS011;64732;56.314;44.068;2023-04-25T13:16:10;6.05;;;1.27;;
76035;SDS011;64732;56.314;44.068;2023-04-25T13:18:34;4.45;;;1.27;;
76035;SDS011;64732;56.314;44.068;2023-04-25T13:20:55;3.72;;;1.73;;
76035;SDS011;64732;56.314;44.068;2023-04-25T13:23:16;4.82;;;2.47;;
76035;SDS011;64732;56.314;44.068;2023-04-25T13:25:37;4.68;;;1.63;;
76035;SDS011;64732;56.314;44.068;2023-04-25T13:27:59;7.10;;;1.92;;
76035;SDS011;64732;56.314;44.068;2023-04-25T13:30:20;6.95;;;2.22;;
76035;SDS011;64732;56.314;44.068;2023-04-25T13:32:41;8.50;;;2.13;;
76035;SDS011;64732;56.314;44.068;2023-04-25T13:35:06;8.30;;;2.28;;
76035;SDS011;64732;56.314;44.068;2023-04-25T13:37:28;7.35;;;2.22;;
76035;SDS011;64732;56.314;44.068;2023-04-25T13:39:49;8.68;;;2.30;;
76035;SDS011;64732;56.314;44.068;2023-04-25T13:42:10;7.22;;;2.47;;
76035;SDS011;64732;56.314;44.068;2023-04-25T13:44:31;7.40;;;2.80;;
76035;SDS011;64732;56.314;44.068;2023-04-25T13:46:52;7.20;;;2.17;;
76035;SDS011;64732;56.314;44.068;2023-04-25T13:49:14;5.10;;;2.05;;
76035;SDS011;64732;56.314;44.068;2023-04-25T13:51:38;7.05;;;2.90;;
76035;SDS011;64732;56.314;44.068;2023-04-25T13:54:00;8.90;;;2.65;;
76035;SDS011;64732;56.314;44.068;2023-04-25T13:56:21;5.53;;;2.72;;
76035;SDS011;64732;56.314;44.068;2023-04-25T13:58:42;7.57;;;2.92;;
76035;SDS011;64732;56.314;44.068;2023-04-25T14:01:03;6.35;;;2.70;;
76035;SDS011;64732;56.314;44.068;2023-04-25T14:03:25;5.35;;;2.50;;
76035;SDS011;64732;56.314;44.068;2023-04-25T14:05:46;5.97;;;3.17;;